Archival Weather

Norman Y Mineta San Jose Intl

San Jose, California (KSJC)

Report from: Wednesday, February 7, 2024 8:53 PM PST
Current time: Monday, June 24, 2024 3:38 AM PDT

Current weather – Weather history – Daily summaries
Weather forecast

Temperature10.0°C (50.0°F)
Wind chill8.0°C (46.3°F)
Dew point3.3°C (37.9°F)
Winds 8 kts (4.1 m/s, 9.2 mph) West (270°)
Visibility10 mi. (16.1 km)
Clouds Few clouds 4,900 ft. (1,494 m)
Ceiling: Broken clouds 6,500 ft. (1,981 m)
Altimeter29.81 in.Hg (1009 mB)
Relative humidity63 %
Density altitude-355 ft. (-108 m)
Sea-level pressure101.0 kPa (1010 mB, 29.81 in.Hg)
Remarks Automated weather observing station with precipitation discriminator
Flight conditions Visual Meteorological Conditions
Raw dataKSJC 080453Z 27008KT 10SM FEW049 BKN065 10/03 A2981 RMK AO2 SLP095 T01000033
An error has occurred. This application may no longer respond until reloaded. Reload 🗙